createdAt,value
2022-10-05T20:29:27.478Z,1.70
2022-10-05T20:30:34.396Z,1.70
2022-10-05T20:31:37.605Z,1.90
2022-10-05T20:32:41.678Z,2.00
2022-10-05T20:33:45.095Z,2.10
2022-10-05T20:34:49.479Z,2.40
2022-10-05T20:35:57.368Z,2.50
2022-10-05T20:37:00.756Z,2.80
2022-10-05T20:38:04.169Z,5.40
2022-10-05T20:39:07.327Z,3.20
2022-10-05T20:40:11.410Z,3.20
2022-10-05T20:41:16.764Z,3.10
2022-10-05T20:42:20.920Z,3.40
2022-10-05T20:43:24.260Z,3.00
2022-10-05T20:44:27.520Z,2.40
2022-10-05T20:45:30.594Z,2.80
2022-10-05T20:46:34.289Z,2.70
2022-10-05T20:47:37.868Z,2.30
2022-10-05T20:48:41.024Z,2.30
2022-10-05T20:49:44.932Z,2.10
2022-10-05T20:50:48.253Z,2.30
2022-10-05T20:51:55.894Z,2.10
2022-10-05T20:52:59.016Z,1.90
2022-10-05T20:54:02.131Z,2.00
2022-10-05T20:55:07.398Z,1.70
2022-10-05T20:56:10.446Z,1.70
2022-10-05T20:57:14.249Z,1.80
2022-10-05T20:58:18.224Z,1.90
2022-10-05T20:59:22.505Z,1.90
2022-10-05T21:00:26.010Z,2.20
2022-10-05T21:01:31.921Z,1.90
2022-10-05T21:02:35.210Z,2.00
2022-10-05T21:03:38.503Z,1.80
2022-10-05T21:04:46.826Z,1.80
2022-10-05T21:05:51.993Z,1.70
2022-10-05T21:06:55.290Z,1.70
2022-10-05T21:07:58.506Z,1.90
2022-10-05T21:09:01.772Z,1.80
2022-10-05T21:10:05.697Z,1.80
2022-10-05T21:11:12.828Z,1.80
2022-10-05T21:12:18.843Z,1.70
2022-10-05T21:13:22.221Z,2.00
2022-10-05T21:14:28.300Z,1.70
2022-10-05T21:15:32.605Z,1.90
2022-10-05T21:16:38.361Z,2.00
2022-10-05T21:17:41.583Z,1.90
2022-10-05T21:18:47.180Z,1.80
2022-10-05T21:19:53.059Z,2.10
2022-10-05T21:20:59.945Z,2.00
2022-10-05T21:22:08.948Z,1.90
2022-10-05T21:23:12.372Z,1.80
2022-10-05T21:24:15.831Z,2.20
2022-10-05T21:25:20.916Z,1.60
2022-10-05T21:26:24.363Z,2.00
2022-10-05T21:27:27.643Z,2.10
2022-10-05T21:28:32.508Z,1.90
2022-10-05T21:29:37.309Z,1.90
2022-10-05T21:30:40.493Z,2.70
2022-10-05T21:31:43.968Z,2.10
2022-10-05T21:32:47.475Z,2.10
2022-10-05T21:33:51.121Z,1.80
2022-10-05T21:34:54.388Z,2.30
2022-10-05T21:35:57.578Z,2.00
2022-10-05T21:37:00.767Z,2.00
2022-10-05T21:38:04.108Z,2.10
2022-10-05T21:39:07.588Z,2.00
2022-10-05T21:40:11.061Z,2.00
2022-10-05T21:41:14.567Z,1.90
2022-10-05T21:42:17.677Z,2.20
2022-10-05T21:43:20.909Z,2.20
2022-10-05T21:44:24.120Z,2.10
2022-10-05T21:45:29.310Z,2.40
2022-10-05T21:46:39.192Z,2.40
2022-10-05T21:47:42.328Z,2.00
2022-10-05T21:48:45.622Z,2.10
2022-10-05T21:49:49.327Z,2.20
2022-10-05T21:50:52.513Z,2.00
2022-10-05T21:51:56.595Z,2.00
2022-10-05T21:53:05.739Z,2.30
2022-10-05T21:54:15.717Z,1.90
2022-10-05T21:55:20.188Z,2.10
2022-10-05T21:56:28.472Z,2.10
2022-10-05T21:57:32.611Z,2.20
2022-10-05T21:58:37.062Z,2.30
2022-10-05T21:59:40.683Z,2.50
2022-10-05T22:00:43.818Z,2.20
2022-10-05T22:01:47.188Z,2.10
2022-10-05T22:02:50.450Z,2.00
2022-10-05T22:03:53.597Z,2.20
2022-10-05T22:04:58.377Z,1.90
2022-10-05T22:06:03.934Z,2.20
2022-10-05T22:07:18.522Z,2.10
2022-10-05T22:08:26.217Z,2.10
2022-10-05T22:09:29.428Z,2.10
2022-10-05T22:10:33.769Z,2.10
2022-10-05T22:11:37.198Z,2.30
2022-10-05T22:12:42.825Z,1.90
2022-10-05T22:13:49.235Z,2.10
2022-10-05T22:14:52.426Z,1.90
2022-10-05T22:15:58.620Z,1.90
2022-10-05T22:17:04.188Z,2.00
2022-10-05T22:18:16.863Z,2.10
2022-10-05T22:19:20.824Z,1.90
2022-10-05T22:20:25.456Z,2.30
2022-10-05T22:21:34.175Z,2.20
2022-10-05T22:22:38.040Z,1.90
2022-10-05T22:23:43.314Z,1.90
2022-10-05T22:24:47.584Z,2.00
2022-10-05T22:25:51.048Z,2.00
2022-10-05T22:26:54.356Z,1.90
2022-10-05T22:27:57.756Z,2.00
2022-10-05T22:29:02.967Z,1.90
2022-10-05T22:30:07.270Z,1.90
2022-10-05T22:31:12.962Z,1.80
2022-10-05T22:32:18.883Z,2.00
2022-10-05T22:33:22.314Z,2.20
2022-10-05T22:34:25.768Z,2.20
2022-10-05T22:35:29.378Z,2.30
2022-10-05T22:36:35.377Z,2.60
2022-10-05T22:37:38.866Z,2.70
2022-10-05T22:38:42.583Z,2.80
2022-10-05T22:39:45.912Z,2.90
2022-10-05T22:40:49.213Z,2.70
2022-10-05T22:41:52.579Z,3.00
2022-10-05T22:42:56.433Z,2.80
2022-10-05T22:44:00.579Z,2.60
2022-10-05T22:45:04.515Z,2.70
2022-10-05T22:46:14.112Z,2.40
2022-10-05T22:47:17.581Z,2.40
2022-10-05T22:48:20.922Z,2.40
2022-10-05T22:49:24.648Z,2.60
2022-10-05T22:50:28.033Z,2.30
2022-10-05T22:51:32.059Z,2.20
2022-10-05T22:52:35.483Z,2.20
2022-10-05T22:53:39.073Z,2.40
2022-10-05T22:54:42.828Z,2.00
2022-10-05T22:55:46.103Z,2.10
2022-10-05T22:56:49.313Z,1.90
2022-10-05T22:57:52.743Z,2.30
2022-10-05T22:58:56.423Z,2.10
2022-10-05T22:59:59.793Z,2.30
2022-10-05T23:01:05.915Z,2.10
2022-10-05T23:02:10.018Z,2.10
2022-10-05T23:03:15.703Z,1.90
2022-10-05T23:04:19.367Z,2.00
2022-10-05T23:05:22.774Z,1.80
2022-10-05T23:06:29.983Z,2.30
2022-10-05T23:07:38.805Z,1.80
2022-10-05T23:08:43.184Z,2.00
2022-10-05T23:09:46.512Z,1.80
2022-10-05T23:10:49.726Z,1.80
2022-10-05T23:11:54.586Z,1.90
2022-10-05T23:13:00.735Z,2.10
2022-10-05T23:14:04.606Z,1.90
2022-10-05T23:15:10.010Z,1.90
2022-10-05T23:16:18.292Z,1.90
2022-10-05T23:17:21.881Z,1.80
2022-10-05T23:18:25.978Z,2.40
2022-10-05T23:19:29.524Z,2.00
2022-10-05T23:20:35.234Z,2.00
2022-10-05T23:21:39.134Z,2.00
2022-10-05T23:22:42.263Z,1.70
2022-10-05T23:23:53.233Z,1.90
2022-10-05T23:24:57.133Z,1.80
2022-10-05T23:26:01.555Z,1.80
2022-10-05T23:27:04.945Z,2.00
2022-10-05T23:28:08.303Z,2.00
2022-10-05T23:29:11.745Z,1.90
2022-10-05T23:30:15.658Z,1.70
2022-10-05T23:31:22.542Z,1.70
2022-10-05T23:32:25.833Z,1.70
2022-10-05T23:33:29.828Z,1.70
2022-10-05T23:34:33.120Z,1.50
2022-10-05T23:35:36.538Z,1.60
2022-10-05T23:36:39.760Z,1.60
2022-10-05T23:37:44.754Z,1.60
2022-10-05T23:38:48.552Z,1.70
2022-10-05T23:39:51.632Z,1.60
2022-10-05T23:40:54.929Z,1.50
2022-10-05T23:42:00.425Z,1.50
2022-10-05T23:43:03.818Z,1.40
2022-10-05T23:44:06.912Z,1.60
2022-10-05T23:45:12.264Z,1.50
2022-10-05T23:46:16.276Z,1.60
2022-10-05T23:47:19.530Z,1.50
2022-10-05T23:48:23.151Z,1.60
2022-10-05T23:49:26.834Z,1.80
2022-10-05T23:50:30.206Z,1.80
2022-10-05T23:51:33.743Z,1.50
2022-10-05T23:52:37.656Z,1.60
2022-10-05T23:53:40.789Z,1.70
2022-10-05T23:54:43.852Z,1.90
2022-10-05T23:55:50.889Z,2.00
2022-10-05T23:56:54.147Z,2.00
2022-10-05T23:57:57.351Z,1.80
2022-10-05T23:59:00.484Z,1.80
